Time;durP1;ratioP1;P1;durP2;ratioP2;P2;SDS_P1;SDS_P2;PMS_P1;PMS_P2;Temp;Humidity;BMP_temperature;BMP_pressure;BME280_temperature;BME280_humidity;BME280_pressure;Samples;Min_cycle;Max_cycle;Signal;HPM_P1;HPM_P2
2021/03/13 00:00:18;;;;;;;15.67;5.73;;;3.80;99.90;;;;;;5030625;28;20206;-71
2021/03/13 00:02:47;;;;;;;36.37;7.70;;;3.70;99.90;;;;;;5030630;28;20248;-72
2021/03/13 00:05:17;;;;;;;27.77;8.17;;;3.80;99.90;;;;;;5062651;28;20225;-71
2021/03/13 00:07:43;;;;;;;19.00;6.80;;;3.70;99.90;;;;;;5058139;28;20213;-72
2021/03/13 00:10:10;;;;;;;23.47;8.23;;;3.80;99.90;;;;;;5028631;28;20298;-72
2021/03/13 00:12:37;;;;;;;24.17;7.93;;;3.70;99.90;;;;;;5028444;28;20218;-72
2021/03/13 00:15:05;;;;;;;18.90;6.93;;;3.80;99.90;;;;;;5029216;28;20202;-72
2021/03/13 00:17:31;;;;;;;17.60;6.67;;;3.70;99.90;;;;;;5027684;28;20209;-71
2021/03/13 00:19:59;;;;;;;17.37;6.37;;;3.70;99.90;;;;;;5029731;28;20701;-71
2021/03/13 00:22:26;;;;;;;12.37;5.43;;;3.70;99.90;;;;;;5025225;28;20238;-71
2021/03/13 00:24:52;;;;;;;13.77;5.03;;;3.70;99.90;;;;;;5028858;28;20297;-72
2021/03/13 00:27:19;;;;;;;10.53;4.57;;;3.70;99.90;;;;;;5011660;28;20716;-71
2021/03/13 00:29:45;;;;;;;11.73;4.53;;;3.80;99.90;;;;;;5028743;28;20199;-71
2021/03/13 00:32:12;;;;;;;12.23;5.00;;;3.80;99.90;;;;;;5030466;28;20689;-71
2021/03/13 00:34:38;;;;;;;12.93;6.03;;;3.80;99.90;;;;;;5029126;28;20297;-71
2021/03/13 00:37:06;;;;;;;11.83;5.53;;;3.80;99.90;;;;;;5028871;28;20227;-72
2021/03/13 00:39:33;;;;;;;23.57;7.50;;;3.80;99.90;;;;;;5061733;28;20214;-72
2021/03/13 00:42:00;;;;;;;48.63;12.43;;;3.80;99.90;;;;;;5028785;28;20198;-72
2021/03/13 00:44:26;;;;;;;52.33;11.90;;;3.80;99.90;;;;;;5029564;28;20674;-72
2021/03/13 00:46:53;;;;;;;29.83;8.33;;;3.80;99.90;;;;;;5045362;28;20221;-72
2021/03/13 00:49:20;;;;;;;12.97;5.53;;;3.80;99.90;;;;;;5028430;28;20226;-72
2021/03/13 00:51:46;;;;;;;10.23;4.70;;;3.90;99.90;;;;;;5030164;28;20203;-72
2021/03/13 00:54:14;;;;;;;12.10;5.43;;;3.90;99.90;;;;;;5029130;28;20245;-72
2021/03/13 00:56:41;;;;;;;8.13;4.53;;;3.90;99.90;;;;;;5028224;28;20234;-72
2021/03/13 00:59:07;;;;;;;9.43;4.03;;;3.90;99.90;;;;;;5027912;28;20202;-72
2021/03/13 01:01:34;;;;;;;11.23;4.40;;;3.90;99.90;;;;;;5027954;28;20253;-72
2021/03/13 01:04:01;;;;;;;10.00;3.70;;;3.90;99.90;;;;;;5062814;28;20305;-72
2021/03/13 01:06:27;;;;;;;7.17;4.07;;;3.90;99.90;;;;;;5033297;28;20209;-72
2021/03/13 01:08:54;;;;;;;13.07;4.27;;;3.90;99.90;;;;;;5033554;28;20530;-71
2021/03/13 01:11:27;;;;;;;7.57;3.83;;;4.00;99.90;;;;;;5031892;28;20201;-71
2021/03/13 01:13:59;;;;;;;8.97;4.57;;;4.00;99.90;;;;;;5031995;28;20208;-71
2021/03/13 01:16:33;;;;;;;12.10;5.07;;;3.90;99.90;;;;;;5032619;28;20205;-71
2021/03/13 01:19:00;;;;;;;10.17;4.97;;;3.90;99.90;;;;;;5032870;28;20208;-72
2021/03/13 01:21:29;;;;;;;8.57;4.80;;;4.00;99.90;;;;;;5032144;28;20629;-72
2021/03/13 01:23:56;;;;;;;10.77;4.40;;;4.00;99.90;;;;;;5032167;28;20208;-72
2021/03/13 01:26:29;;;;;;;8.87;4.93;;;4.00;99.90;;;;;;5031411;28;20307;-72
2021/03/13 01:28:59;;;;;;;11.67;4.93;;;4.00;99.90;;;;;;5063830;28;20677;-72
2021/03/13 01:31:48;;;;;;;54.10;12.33;;;4.00;99.90;;;;;;5033576;28;20673;-71
2021/03/13 01:34:19;;;;;;;109.53;18.77;;;4.10;99.90;;;;;;5032161;28;20202;-71
2021/03/13 01:36:53;;;;;;;65.90;15.67;;;4.10;99.90;;;;;;5031286;28;20245;-72
2021/03/13 01:39:20;;;;;;;22.43;7.60;;;4.20;99.90;;;;;;5033284;28;20198;-71
2021/03/13 01:41:48;;;;;;;16.77;6.37;;;4.20;99.90;;;;;;5048085;28;20221;-72
2021/03/13 01:44:15;;;;;;;14.17;5.47;;;4.10;99.90;;;;;;5031583;28;20312;-72
2021/03/13 01:46:41;;;;;;;12.43;5.17;;;4.30;99.90;;;;;;5031238;28;20232;-72
2021/03/13 01:49:17;;;;;;;8.80;5.07;;;4.30;99.90;;;;;;5055065;28;20359;-72
2021/03/13 01:51:45;;;;;;;11.33;5.53;;;4.30;99.90;;;;;;5032881;28;20225;-72
2021/03/13 01:54:13;;;;;;;12.73;5.30;;;4.30;99.90;;;;;;5032202;28;20690;-72
2021/03/13 01:56:41;;;;;;;9.37;4.60;;;4.40;99.90;;;;;;5031037;28;20206;-72
2021/03/13 01:59:09;;;;;;;11.40;5.73;;;4.40;99.90;;;;;;5031479;28;20286;-72
2021/03/13 02:01:41;;;;;;;8.13;4.20;;;4.40;99.90;;;;;;5064426;28;20225;-72
2021/03/13 02:04:10;;;;;;;9.50;4.10;;;4.50;99.90;;;;;;5032416;28;20206;-72
2021/03/13 02:06:36;;;;;;;6.40;3.40;;;4.50;99.90;;;;;;5031637;28;20198;-72
2021/03/13 02:09:14;;;;;;;5.70;3.03;;;4.60;99.90;;;;;;5031165;28;20213;-72
2021/03/13 02:11:51;;;;;;;9.77;3.97;;;4.60;99.90;;;;;;5063757;28;20551;-72
2021/03/13 02:14:31;;;;;;;6.33;3.30;;;4.70;99.90;;;;;;5063526;28;20202;-72
2021/03/13 02:17:12;;;;;;;9.90;4.40;;;4.70;99.90;;;;;;5065220;28;20205;-72
2021/03/13 02:20:10;;;;;;;9.17;4.40;;;4.70;99.90;;;;;;5031293;28;20221;-72
2021/03/13 02:22:40;;;;;;;9.40;4.73;;;4.70;99.90;;;;;;5040392;28;20198;-72
2021/03/13 02:25:44;;;;;;;7.87;3.77;;;4.70;99.90;;;;;;5032985;28;20191;-72
2021/03/13 02:28:21;;;;;;;10.17;4.10;;;4.70;99.90;;;;;;5026883;28;20195;-72
2021/03/13 02:30:51;;;;;;;5.93;3.60;;;4.80;99.90;;;;;;5031502;28;20654;-72
2021/03/13 02:33:24;;;;;;;8.23;3.80;;;4.80;99.90;;;;;;5063540;28;20206;-72
2021/03/13 02:36:10;;;;;;;6.37;3.63;;;4.80;99.90;;;;;;5054453;28;20652;-72
2021/03/13 02:38:46;;;;;;;7.33;3.60;;;4.80;99.90;;;;;;5058484;28;20651;-72
2021/03/13 02:41:17;;;;;;;8.17;3.80;;;4.80;99.90;;;;;;5029745;28;20545;-72
2021/03/13 02:43:47;;;;;;;7.07;3.40;;;4.90;99.90;;;;;;5030273;28;20209;-72
2021/03/13 02:46:17;;;;;;;5.53;3.03;;;4.90;99.90;;;;;;5030935;28;20628;-72
2021/03/13 02:48:47;;;;;;;4.57;2.70;;;5.00;99.90;;;;;;5031021;28;20321;-72
2021/03/13 02:51:17;;;;;;;4.43;2.83;;;5.00;99.90;;;;;;5029753;28;20744;-72
2021/03/13 02:53:46;;;;;;;6.00;3.00;;;5.10;99.90;;;;;;5031064;28;20327;-72
2021/03/13 02:56:13;;;;;;;5.47;3.37;;;5.10;99.90;;;;;;5030098;28;20198;-72
2021/03/13 02:58:43;;;;;;;6.63;3.53;;;5.10;99.90;;;;;;5030198;28;20289;-72
2021/03/13 03:01:11;;;;;;;8.27;3.17;;;5.20;99.90;;;;;;5030396;28;20241;-72
2021/03/13 03:03:41;;;;;;;6.67;3.00;;;5.20;99.90;;;;;;5031078;28;20206;-72
2021/03/13 03:06:16;;;;;;;4.87;2.67;;;5.20;99.90;;;;;;5028466;28;20648;-72
2021/03/13 03:08:48;;;;;;;4.53;2.93;;;5.20;99.90;;;;;;5029803;28;20988;-72
2021/03/13 03:11:21;;;;;;;5.67;2.43;;;5.30;99.90;;;;;;5026118;28;20587;-72
2021/03/13 03:13:50;;;;;;;4.00;2.27;;;5.30;99.90;;;;;;5060438;28;20210;-72
2021/03/13 03:16:19;;;;;;;4.97;2.87;;;5.40;99.90;;;;;;5030734;28;21017;-71
2021/03/13 03:18:49;;;;;;;8.20;2.80;;;5.40;99.90;;;;;;5030174;28;20298;-72
2021/03/13 03:21:18;;;;;;;4.83;2.50;;;5.40;99.90;;;;;;5012360;28;20309;-72
2021/03/13 03:23:46;;;;;;;3.80;2.07;;;5.50;99.90;;;;;;5030439;28;20202;-72
2021/03/13 03:26:13;;;;;;;3.73;2.23;;;5.50;99.90;;;;;;5061742;28;20202;-72
2021/03/13 03:28:40;;;;;;;5.20;2.50;;;5.50;99.90;;;;;;5062956;28;20700;-72
2021/03/13 03:31:14;;;;;;;4.83;2.77;;;5.50;99.90;;;;;;5031083;28;20194;-72
2021/03/13 03:33:41;;;;;;;5.17;2.43;;;5.50;99.90;;;;;;5030097;28;20200;-72
2021/03/13 03:36:11;;;;;;;6.37;3.27;;;5.50;99.90;;;;;;5029090;28;20211;-72
2021/03/13 03:38:39;;;;;;;5.33;2.87;;;5.50;99.90;;;;;;5028908;28;20744;-72
2021/03/13 03:41:10;;;;;;;5.53;2.77;;;5.50;99.90;;;;;;5029861;28;20226;-72
2021/03/13 03:43:43;;;;;;;6.83;3.60;;;5.50;99.90;;;;;;5028428;28;20249;-72
2021/03/13 03:46:13;;;;;;;4.87;2.67;;;5.50;99.90;;;;;;5030357;28;20233;-72
2021/03/13 03:48:41;;;;;;;6.03;3.07;;;5.50;99.90;;;;;;5028915;28;20230;-72
2021/03/13 03:51:16;;;;;;;6.47;3.50;;;5.50;99.90;;;;;;5029129;28;20209;-72
2021/03/13 03:53:50;;;;;;;8.13;3.33;;;5.50;99.90;;;;;;5029604;28;20340;-72
2021/03/13 03:56:19;;;;;;;6.90;2.97;;;5.40;99.90;;;;;;5028906;28;20240;-72
2021/03/13 03:58:48;;;;;;;7.00;3.33;;;5.40;99.90;;;;;;5028942;28;20195;-72
2021/03/13 04:01:16;;;;;;;6.40;2.73;;;5.40;99.90;;;;;;5029003;28;20656;-72
2021/03/13 04:03:45;;;;;;;5.47;2.70;;;5.40;99.90;;;;;;5031189;28;20245;-72
2021/03/13 04:06:14;;;;;;;5.70;2.87;;;5.40;99.90;;;;;;5029676;28;20737;-71
2021/03/13 04:08:44;;;;;;;6.10;2.50;;;5.40;99.90;;;;;;5033285;28;20222;-72
2021/03/13 04:11:12;;;;;;;2.17;1.97;;;5.40;99.90;;;;;;5028510;28;20646;-72
2021/03/13 04:13:39;;;;;;;4.73;2.23;;;5.40;99.90;;;;;;5029501;28;20649;-72
2021/03/13 04:16:06;;;;;;;4.73;1.90;;;5.40;99.90;;;;;;5029392;28;20237;-72
2021/03/13 04:18:33;;;;;;;2.93;1.97;;;5.40;99.90;;;;;;5029230;28;20202;-72
2021/03/13 04:21:01;;;;;;;2.63;1.73;;;5.40;99.90;;;;;;5029904;28;20297;-71
2021/03/13 04:23:28;;;;;;;6.27;2.27;;;5.40;99.90;;;;;;5059103;28;20542;-71
2021/03/13 04:25:55;;;;;;;3.23;2.57;;;5.40;99.90;;;;;;5030871;28;20206;-71
2021/03/13 04:28:22;;;;;;;3.30;1.80;;;5.30;99.90;;;;;;5028715;28;20193;-71
2021/03/13 04:30:50;;;;;;;4.67;2.23;;;5.30;99.90;;;;;;5029249;28;20619;-71
2021/03/13 04:33:18;;;;;;;5.33;2.17;;;5.30;99.90;;;;;;5030935;28;20225;-71
2021/03/13 04:35:46;;;;;;;4.93;2.23;;;5.30;99.90;;;;;;5028763;28;20313;-71
2021/03/13 04:38:16;;;;;;;3.00;2.10;;;5.20;99.90;;;;;;5029536;28;20647;-72
2021/03/13 04:40:44;;;;;;;6.77;3.20;;;5.30;99.90;;;;;;5030717;28;20304;-72
2021/03/13 04:43:12;;;;;;;6.73;3.17;;;5.30;99.90;;;;;;5028184;28;20317;-71
2021/03/13 04:45:38;;;;;;;8.10;3.40;;;5.30;99.90;;;;;;5030085;28;20194;-71
2021/03/13 04:48:06;;;;;;;8.63;3.47;;;5.30;99.90;;;;;;5028771;28;20637;-72
2021/03/13 04:50:33;;;;;;;9.93;3.33;;;5.20;99.90;;;;;;5029585;28;20198;-72
2021/03/13 04:53:00;;;;;;;7.33;2.70;;;5.20;99.90;;;;;;5029471;28;20194;-72
2021/03/13 04:55:26;;;;;;;5.93;3.03;;;5.20;99.90;;;;;;5059056;28;20228;-69
2021/03/13 04:57:54;;;;;;;10.57;3.70;;;5.20;99.90;;;;;;5027301;28;20198;-69
2021/03/13 05:00:22;;;;;;;8.20;3.07;;;5.20;99.90;;;;;;5028712;28;20237;-70
2021/03/13 05:02:48;;;;;;;6.80;3.10;;;5.10;99.90;;;;;;5028305;28;20348;-70
2021/03/13 05:05:16;;;;;;;6.93;3.00;;;5.10;99.90;;;;;;5030103;28;20213;-70
2021/03/13 05:07:42;;;;;;;8.67;3.27;;;5.10;99.90;;;;;;5027687;28;20217;-70
2021/03/13 05:10:10;;;;;;;5.93;2.70;;;5.10;99.90;;;;;;5060762;28;20224;-69
2021/03/13 05:12:37;;;;;;;5.87;2.53;;;5.20;99.90;;;;;;5026545;28;20613;-69
2021/03/13 05:15:07;;;;;;;6.37;2.60;;;5.20;99.90;;;;;;5028580;28;20555;-69
2021/03/13 05:17:33;;;;;;;6.07;2.23;;;5.20;99.90;;;;;;5044400;28;20229;-69
2021/03/13 05:20:00;;;;;;;6.63;3.07;;;5.20;99.90;;;;;;5062267;28;20245;-69
2021/03/13 05:22:27;;;;;;;4.53;2.43;;;5.20;99.90;;;;;;5029363;28;20198;-69
2021/03/13 05:24:53;;;;;;;4.83;2.53;;;5.30;99.90;;;;;;5028492;28;20433;-69
2021/03/13 05:27:19;;;;;;;3.07;1.83;;;5.30;99.90;;;;;;5027083;28;20685;-69
2021/03/13 05:29:46;;;;;;;3.53;2.00;;;5.30;99.90;;;;;;5029628;28;20205;-70
2021/03/13 05:32:13;;;;;;;5.27;2.00;;;5.30;99.90;;;;;;5029506;28;20201;-69
2021/03/13 05:34:40;;;;;;;3.83;1.97;;;5.40;99.90;;;;;;5028865;28;20642;-69
2021/03/13 05:37:07;;;;;;;4.53;2.33;;;5.40;99.90;;;;;;5029363;28;20225;-69
2021/03/13 05:39:33;;;;;;;3.47;1.77;;;4.80;99.90;;;;;;5029403;28;20675;-69
2021/03/13 05:42:01;;;;;;;5.13;2.40;;;5.50;99.90;;;;;;5028475;28;20273;-69
2021/03/13 05:44:28;;;;;;;5.47;2.30;;;5.50;99.90;;;;;;5055772;28;20186;-70
2021/03/13 05:46:56;;;;;;;2.13;1.97;;;5.60;99.90;;;;;;5029576;28;20698;-69
2021/03/13 05:49:24;;;;;;;4.23;1.93;;;5.60;99.90;;;;;;5061563;28;20245;-70
2021/03/13 05:51:50;;;;;;;2.03;1.53;;;5.70;99.90;;;;;;5030668;28;20293;-69
2021/03/13 05:54:18;;;;;;;3.60;1.97;;;5.70;99.90;;;;;;5031082;28;20217;-69
2021/03/13 05:56:45;;;;;;;2.90;1.83;;;5.80;99.90;;;;;;5042958;28;20198;-69
2021/03/13 05:59:12;;;;;;;2.83;2.27;;;5.80;99.90;;;;;;5028208;28;20634;-69
2021/03/13 06:01:39;;;;;;;3.73;2.17;;;5.80;99.90;;;;;;5064516;28;20317;-71
2021/03/13 06:04:06;;;;;;;7.80;3.47;;;5.80;99.90;;;;;;5031832;28;20308;-70
2021/03/13 06:06:37;;;;;;;8.33;3.73;;;5.90;99.90;;;;;;5032601;28;20198;-69
2021/03/13 06:09:05;;;;;;;6.60;2.93;;;5.90;99.90;;;;;;5032292;28;20721;-69
2021/03/13 06:11:32;;;;;;;5.67;2.77;;;6.00;99.90;;;;;;5030482;28;20214;-68
2021/03/13 06:13:58;;;;;;;6.13;2.80;;;6.00;99.90;;;;;;5030496;28;20186;-76
2021/03/13 06:16:26;;;;;;;2.43;2.17;;;6.00;99.90;;;;;;5026402;28;20203;-70
2021/03/13 06:18:56;;;;;;;4.03;2.27;;;6.00;99.90;;;;;;5048313;28;20212;-70
2021/03/13 06:21:24;;;;;;;3.53;2.20;;;6.10;99.90;;;;;;5031931;28;20558;-70
2021/03/13 06:23:56;;;;;;;2.80;2.13;;;6.10;99.90;;;;;;5031094;28;20502;-70
2021/03/13 06:26:24;;;;;;;4.07;2.43;;;6.20;99.90;;;;;;5032402;28;20260;-70
2021/03/13 06:28:53;;;;;;;2.97;2.20;;;6.30;99.90;;;;;;5031622;28;20202;-70
2021/03/13 06:31:27;;;;;;;3.37;2.17;;;6.30;99.90;;;;;;5032752;28;20194;-70
2021/03/13 06:33:54;;;;;;;2.87;1.97;;;6.40;99.90;;;;;;5031748;28;20298;-70
2021/03/13 06:36:23;;;;;;;2.87;1.83;;;6.50;99.90;;;;;;5030585;28;20240;-70
2021/03/13 06:38:51;;;;;;;6.03;2.23;;;6.60;99.90;;;;;;5031301;28;20190;-70
2021/03/13 06:41:23;;;;;;;4.40;1.70;;;6.70;99.90;;;;;;5063532;28;20229;-68
2021/03/13 06:43:51;;;;;;;2.70;2.13;;;6.80;99.90;;;;;;5030423;28;20218;-70
2021/03/13 06:46:18;;;;;;;2.23;2.03;;;6.80;99.90;;;;;;5031935;28;20196;-69
2021/03/13 06:48:46;;;;;;;2.10;1.90;;;6.80;99.90;;;;;;5017412;28;20428;-69
2021/03/13 06:51:28;;;;;;;2.87;1.80;;;6.80;99.90;;;;;;5027920;28;20183;-70
2021/03/13 06:54:07;;;;;;;1.83;1.60;;;6.80;99.90;;;;;;5038051;28;20222;-70
2021/03/13 06:56:37;;;;;;;2.97;1.67;;;6.90;99.90;;;;;;5022799;28;20201;-70
2021/03/13 06:59:21;;;;;;;3.93;1.60;;;6.90;99.90;;;;;;5026351;28;20333;-69
2021/03/13 07:02:01;;;;;;;5.33;2.03;;;6.90;99.90;;;;;;5059871;28;20609;-71
2021/03/13 07:04:36;;;;;;;7.50;3.20;;;7.00;99.90;;;;;;5027096;28;20199;-69
2021/03/13 07:07:03;;;;;;;3.70;2.33;;;6.90;99.90;;;;;;5027328;28;20204;-70
2021/03/13 07:09:47;;;;;;;3.17;1.90;;;7.00;99.90;;;;;;5026735;28;20741;-70
2021/03/13 07:12:30;;;;;;;3.60;2.03;;;7.00;99.90;;;;;;5023399;28;20190;-70
2021/03/13 07:15:11;;;;;;;4.03;2.20;;;7.10;99.90;;;;;;5023186;28;20272;-70
2021/03/13 07:17:40;;;;;;;2.03;1.83;;;7.30;99.90;;;;;;5028774;28;20699;-70
2021/03/13 07:20:07;;;;;;;3.77;1.67;;;7.30;99.90;;;;;;5024520;28;20218;-70
2021/03/13 07:22:35;;;;;;;3.23;2.13;;;7.30;99.90;;;;;;5026240;28;20274;-70
2021/03/13 07:25:02;;;;;;;2.27;1.77;;;7.50;99.90;;;;;;5025598;28;20647;-70
2021/03/13 07:27:32;;;;;;;2.10;1.73;;;7.60;99.90;;;;;;5025836;28;20646;-70
2021/03/13 07:30:00;;;;;;;3.97;2.47;;;7.60;99.90;;;;;;5025188;28;20530;-70
2021/03/13 07:32:28;;;;;;;3.50;2.33;;;7.80;99.90;;;;;;5059493;28;20296;-69
2021/03/13 07:35:02;;;;;;;5.20;2.73;;;7.90;99.90;;;;;;5028660;28;20196;-69
2021/03/13 07:37:32;;;;;;;3.37;2.33;;;8.00;99.90;;;;;;5025397;28;20295;-69
2021/03/13 07:40:00;;;;;;;3.33;2.20;;;8.10;99.90;;;;;;5033888;28;20278;-69
2021/03/13 07:42:28;;;;;;;6.63;2.20;;;8.30;99.90;;;;;;5033229;28;20666;-69
2021/03/13 07:44:55;;;;;;;3.27;1.93;;;8.40;99.90;;;;;;5031208;28;20530;-69
2021/03/13 07:47:22;;;;;;;2.90;2.00;;;8.50;99.90;;;;;;5029860;28;20242;-69
2021/03/13 07:49:48;;;;;;;3.17;2.20;;;8.70;99.90;;;;;;5031260;28;20298;-74
2021/03/13 07:52:18;;;;;;;3.47;1.80;;;8.70;99.90;;;;;;5029929;28;20633;-70
2021/03/13 07:54:48;;;;;;;3.97;2.10;;;9.00;99.90;;;;;;5031195;28;20304;-74
2021/03/13 07:57:16;;;;;;;2.50;1.90;;;9.20;99.90;;;;;;5030063;28;20197;-70
2021/03/13 07:59:45;;;;;;;4.00;1.73;;;9.40;99.90;;;;;;5049801;28;20205;-70
2021/03/13 08:02:43;;;;;;;2.03;1.70;;;9.40;99.90;;;;;;5060538;28;20578;-70
2021/03/13 08:05:12;;;;;;;1.97;1.80;;;9.50;99.90;;;;;;5030150;28;20190;-71
2021/03/13 08:08:03;;;;;;;3.13;1.70;;;10.00;99.90;;;;;;5028165;28;20671;-71
2021/03/13 08:10:44;;;;;;;2.00;1.40;;;10.20;99.90;;;;;;5029509;28;20206;-71
2021/03/13 08:13:12;;;;;;;2.40;1.80;;;10.70;99.90;;;;;;5027877;28;20205;-71
2021/03/13 08:15:46;;;;;;;3.10;1.73;;;10.70;99.90;;;;;;5028408;28;20194;-71
2021/03/13 08:18:40;;;;;;;1.53;1.40;;;10.70;99.90;;;;;;5029342;28;20489;-71
2021/03/13 08:21:43;;;;;;;1.60;1.50;;;10.70;99.90;;;;;;5027759;28;20722;-71
2021/03/13 08:24:11;;;;;;;2.27;1.80;;;10.60;99.90;;;;;;4972669;28;20349;-70
2021/03/13 08:27:14;;;;;;;1.70;1.50;;;10.60;99.90;;;;;;4988144;28;20259;-71
2021/03/13 08:29:52;;;;;;;1.83;1.70;;;10.60;99.90;;;;;;4984318;28;20301;-71
2021/03/13 08:33:04;;;;;;;2.20;1.70;;;11.00;99.90;;;;;;4989030;28;20195;-71
2021/03/13 08:35:51;;;;;;;1.73;1.60;;;11.50;99.90;;;;;;4980111;28;20211;-71
2021/03/13 08:38:41;;;;;;;3.20;2.00;;;11.50;99.90;;;;;;4985013;28;20203;-71
2021/03/13 08:41:07;;;;;;;1.93;1.80;;;11.30;99.90;;;;;;4971251;28;20226;-71
2021/03/13 08:43:42;;;;;;;2.10;1.90;;;11.00;99.90;;;;;;4955499;28;20209;-71
2021/03/13 08:46:44;;;;;;;1.80;1.70;;;10.80;99.90;;;;;;4972596;28;20204;-71
2021/03/13 08:49:13;;;;;;;2.00;1.80;;;10.60;99.90;;;;;;4985719;28;20242;-71
2021/03/13 08:51:40;;;;;;;1.93;1.77;;;10.40;99.90;;;;;;4971698;28;20252;-71
2021/03/13 08:54:08;;;;;;;3.10;2.40;;;10.30;99.90;;;;;;4988229;28;20670;-71
2021/03/13 08:56:43;;;;;;;2.43;2.10;;;10.10;99.90;;;;;;4972130;28;20685;-71
2021/03/13 08:59:17;;;;;;;3.40;2.30;;;10.00;99.90;;;;;;4970926;28;20243;-71
2021/03/13 09:02:00;;;;;;;5.80;3.00;;;9.90;99.90;;;;;;5018877;28;20238;-71
2021/03/13 09:04:28;;;;;;;4.03;2.43;;;9.90;99.90;;;;;;5038654;28;20571;-71
2021/03/13 09:06:55;;;;;;;3.27;2.37;;;9.80;99.90;;;;;;5028157;28;20691;-70
2021/03/13 09:09:24;;;;;;;2.43;2.23;;;9.80;99.90;;;;;;5029073;28;20301;-70
2021/03/13 09:11:59;;;;;;;3.80;2.13;;;9.80;99.90;;;;;;5028213;28;20204;-70
2021/03/13 09:14:26;;;;;;;2.10;1.90;;;9.80;99.90;;;;;;5027615;28;20205;-70
2021/03/13 09:16:53;;;;;;;2.60;1.93;;;9.80;99.90;;;;;;5027778;28;20226;-70
2021/03/13 09:19:20;;;;;;;4.27;2.20;;;9.80;99.90;;;;;;5028800;28;20683;-71
2021/03/13 09:21:50;;;;;;;3.80;3.03;;;9.80;99.90;;;;;;5027867;28;20261;-70
2021/03/13 09:24:19;;;;;;;2.60;2.10;;;10.10;99.90;;;;;;5028752;28;20261;-70
2021/03/13 09:26:53;;;;;;;2.20;2.00;;;10.60;99.90;;;;;;5032138;28;20213;-70
2021/03/13 09:29:32;;;;;;;3.27;1.80;;;11.00;99.90;;;;;;5064644;28;20212;-70
2021/03/13 09:32:00;;;;;;;2.07;1.87;;;11.20;99.90;;;;;;5022903;28;20276;-70
2021/03/13 09:34:29;;;;;;;3.07;2.37;;;11.20;99.90;;;;;;5048290;28;20682;-70
2021/03/13 09:36:57;;;;;;;1.83;1.73;;;11.40;99.90;;;;;;5022889;28;20201;-70
2021/03/13 09:39:26;;;;;;;2.43;1.80;;;11.80;99.90;;;;;;5033517;28;20233;-70
2021/03/13 09:42:04;;;;;;;3.40;2.17;;;12.20;99.90;;;;;;5038853;28;20291;-70
2021/03/13 09:44:32;;;;;;;2.30;1.80;;;12.30;99.90;;;;;;5031047;28;20242;-70
2021/03/13 09:46:58;;;;;;;3.03;2.20;;;12.30;99.90;;;;;;5032276;28;20623;-70
2021/03/13 09:49:26;;;;;;;2.03;1.60;;;12.10;99.90;;;;;;5064592;28;20230;-70
2021/03/13 09:51:52;;;;;;;3.50;2.00;;;12.00;99.90;;;;;;5032982;28;20191;-70
2021/03/13 09:54:20;;;;;;;3.00;1.70;;;11.90;99.90;;;;;;5033255;28;20567;-70
2021/03/13 09:56:46;;;;;;;3.70;2.10;;;12.30;99.90;;;;;;5032945;28;20260;-70
2021/03/13 09:59:18;;;;;;;3.00;2.20;;;12.70;99.90;;;;;;5025327;28;20220;-70
2021/03/13 10:01:44;;;;;;;3.30;2.43;;;13.10;99.90;;;;;;5033087;28;20704;-70
2021/03/13 10:04:11;;;;;;;1.90;1.80;;;13.20;99.90;;;;;;5033389;28;20196;-70
2021/03/13 10:06:38;;;;;;;1.70;1.60;;;13.10;99.40;;;;;;5031139;28;20225;-70
2021/03/13 10:09:05;;;;;;;2.50;2.30;;;13.10;99.50;;;;;;5033160;28;20193;-70
2021/03/13 10:11:41;;;;;;;3.00;2.27;;;13.30;98.50;;;;;;5032576;28;20301;-70
2021/03/13 10:14:17;;;;;;;2.97;1.70;;;13.50;98.20;;;;;;5031574;28;20667;-71
2021/03/13 10:16:44;;;;;;;3.00;1.90;;;13.90;97.90;;;;;;5061745;28;20225;-71
2021/03/13 10:19:36;;;;;;;2.00;1.90;;;14.30;96.50;;;;;;5033125;28;20257;-71
2021/03/13 10:22:11;;;;;;;1.90;1.80;;;14.50;95.70;;;;;;5032141;28;20733;-71
2021/03/13 10:24:46;;;;;;;3.77;2.13;;;14.60;94.90;;;;;;5032343;28;20194;-71
2021/03/13 10:27:24;;;;;;;3.27;2.60;;;14.70;94.10;;;;;;5027469;28;20667;-70
2021/03/13 10:29:56;;;;;;;3.83;2.73;;;15.20;92.90;;;;;;5029155;28;20223;-71
2021/03/13 10:32:25;;;;;;;2.97;2.67;;;15.80;91.80;;;;;;5031232;28;20206;-71
2021/03/13 10:35:20;;;;;;;3.60;2.23;;;16.20;90.80;;;;;;5031363;28;20196;-71
2021/03/13 10:37:48;;;;;;;2.47;1.90;;;16.90;90.00;;;;;;5010091;28;20210;-71
2021/03/13 10:40:46;;;;;;;2.53;2.30;;;17.50;85.60;;;;;;4994222;28;20206;-71
2021/03/13 10:43:37;;;;;;;2.00;1.60;;;17.50;80.00;;;;;;4992751;28;20195;-71
2021/03/13 10:46:13;;;;;;;1.90;1.73;;;17.10;79.90;;;;;;4993862;28;20286;-70
2021/03/13 10:49:01;;;;;;;4.40;1.83;;;16.70;78.90;;;;;;5010625;28;20229;-70
2021/03/13 10:51:30;;;;;;;1.83;1.73;;;16.20;77.50;;;;;;4993189;28;20209;-70
2021/03/13 10:53:57;;;;;;;3.10;1.97;;;15.90;77.20;;;;;;4993071;28;20306;-70
2021/03/13 10:56:24;;;;;;;3.73;2.20;;;15.60;77.90;;;;;;5009725;28;20297;-70
2021/03/13 10:58:53;;;;;;;2.77;2.10;;;15.50;77.70;;;;;;5008845;28;20221;-70
2021/03/13 11:01:20;;;;;;;2.87;1.83;;;15.30;77.50;;;;;;4992147;28;20220;-70
2021/03/13 11:03:48;;;;;;;2.80;1.80;;;15.40;77.60;;;;;;4993940;28;20297;-70
2021/03/13 11:06:24;;;;;;;2.80;2.13;;;15.30;76.60;;;;;;4992702;28;20213;-70
2021/03/13 11:08:52;;;;;;;2.37;2.17;;;15.20;76.40;;;;;;4993585;28;20242;-71
2021/03/13 11:11:18;;;;;;;2.83;2.20;;;15.20;76.40;;;;;;5009463;28;20208;-71
2021/03/13 11:13:45;;;;;;;3.67;2.57;;;15.30;76.20;;;;;;5022641;28;20698;-70
2021/03/13 11:16:13;;;;;;;6.00;2.83;;;15.30;76.00;;;;;;5030282;28;20342;-71
2021/03/13 11:18:39;;;;;;;4.17;2.47;;;15.70;76.30;;;;;;5046949;28;20238;-70
2021/03/13 11:21:06;;;;;;;1.90;1.70;;;16.30;75.60;;;;;;5030944;28;20433;-71
2021/03/13 11:23:33;;;;;;;2.10;2.00;;;16.60;74.20;;;;;;5031154;28;20308;-71
2021/03/13 11:26:00;;;;;;;3.13;2.00;;;16.90;72.80;;;;;;5030775;28;20210;-71
2021/03/13 11:28:26;;;;;;;3.23;1.97;;;17.10;72.00;;;;;;5029188;28;20294;-71
2021/03/13 11:30:53;;;;;;;1.63;1.53;;;17.40;69.80;;;;;;5030755;28;20202;-71
2021/03/13 11:33:20;;;;;;;2.23;1.47;;;17.60;67.70;;;;;;5030055;28;20195;-71
2021/03/13 11:35:47;;;;;;;2.63;1.83;;;17.80;65.80;;;;;;5031244;28;20271;-71
2021/03/13 11:38:14;;;;;;;1.90;1.50;;;17.90;63.30;;;;;;5044539;28;20952;-71
2021/03/13 11:40:40;;;;;;;1.47;1.33;;;17.90;62.70;;;;;;5063487;28;20216;-71
2021/03/13 11:43:07;;;;;;;1.50;1.40;;;17.80;61.70;;;;;;5028270;28;20188;-71
2021/03/13 11:45:33;;;;;;;3.40;1.50;;;17.60;61.00;;;;;;5029607;28;20230;-71
2021/03/13 11:48:00;;;;;;;2.80;1.60;;;17.30;60.80;;;;;;5062644;28;20304;-71
2021/03/13 11:50:29;;;;;;;1.30;1.20;;;17.10;60.60;;;;;;5062977;28;20210;-71
2021/03/13 11:52:57;;;;;;;1.70;1.27;;;16.80;60.90;;;;;;5028884;28;20213;-71
2021/03/13 11:55:25;;;;;;;3.30;1.60;;;16.50;62.20;;;;;;5031571;28;20186;-71
2021/03/13 11:57:52;;;;;;;4.20;1.53;;;16.30;61.60;;;;;;5028819;28;20246;-71
2021/03/13 12:00:20;;;;;;;1.47;1.37;;;16.00;61.10;;;;;;5030903;28;20209;-71
2021/03/13 12:02:46;;;;;;;2.80;1.67;;;15.60;61.40;;;;;;5029632;28;20553;-72
2021/03/13 12:05:13;;;;;;;2.17;1.97;;;15.50;61.60;;;;;;5029263;28;20617;-71
2021/03/13 12:07:41;;;;;;;2.30;1.80;;;15.40;61.60;;;;;;5030806;28;20704;-71
2021/03/13 12:10:09;;;;;;;1.57;1.47;;;15.50;61.90;;;;;;5012940;28;20198;-71
2021/03/13 12:12:36;;;;;;;1.60;1.50;;;15.40;61.30;;;;;;5028038;28;20206;-71
2021/03/13 12:15:04;;;;;;;1.17;1.10;;;15.20;61.10;;;;;;5028542;28;20201;-71
2021/03/13 12:17:31;;;;;;;2.90;1.20;;;15.10;61.90;;;;;;5046125;28;20216;-71
2021/03/13 12:19:57;;;;;;;1.60;1.40;;;15.10;62.40;;;;;;5062521;28;20214;-72
2021/03/13 12:22:26;;;;;;;3.00;1.53;;;15.00;62.50;;;;;;5028895;28;20770;-72
2021/03/13 12:24:53;;;;;;;3.00;1.90;;;14.90;63.10;;;;;;5030921;28;20225;-71
2021/03/13 12:27:20;;;;;;;3.27;2.13;;;14.80;63.30;;;;;;5028339;28;20284;-71
2021/03/13 12:29:47;;;;;;;2.17;1.67;;;14.60;63.70;;;;;;5029059;28;20275;-71
2021/03/13 12:32:13;;;;;;;3.90;1.80;;;14.40;64.00;;;;;;5029317;28;20231;-71
2021/03/13 12:34:40;;;;;;;4.20;2.10;;;14.20;64.30;;;;;;5030436;28;20223;-71
2021/03/13 12:37:07;;;;;;;4.53;1.70;;;14.00;64.90;;;;;;5028374;28;20202;-71
2021/03/13 12:39:33;;;;;;;1.70;1.60;;;14.00;65.60;;;;;;5045548;28;20203;-72
2021/03/13 12:42:02;;;;;;;2.27;1.63;;;14.00;66.00;;;;;;5029899;28;20790;-71
2021/03/13 12:44:28;;;;;;;2.27;1.87;;;14.00;66.30;;;;;;5029396;28;20615;-71
2021/03/13 12:46:55;;;;;;;2.43;1.80;;;14.00;66.60;;;;;;5030748;28;20257;-71
2021/03/13 12:49:22;;;;;;;2.40;1.90;;;14.10;66.90;;;;;;5028918;28;20245;-71
2021/03/13 12:51:48;;;;;;;2.50;1.80;;;14.10;67.00;;;;;;5028154;28;20228;-71
2021/03/13 12:54:15;;;;;;;4.63;1.70;;;14.00;66.60;;;;;;5028367;28;20211;-71
2021/03/13 12:56:42;;;;;;;3.13;1.80;;;13.90;66.50;;;;;;5030009;28;20226;-71
2021/03/13 12:59:09;;;;;;;2.63;1.83;;;13.80;66.60;;;;;;5024677;28;20282;-71
2021/03/13 13:01:36;;;;;;;3.30;2.17;;;13.70;66.90;;;;;;5048783;28;20238;-71
2021/03/13 13:04:03;;;;;;;3.40;1.80;;;13.60;67.20;;;;;;5034422;28;20273;-71
2021/03/13 13:06:31;;;;;;;5.77;2.30;;;13.60;67.60;;;;;;5032004;28;20220;-71
2021/03/13 13:08:58;;;;;;;24.03;5.43;;;13.50;68.00;;;;;;5032733;28;20206;-71